Terminal Aerodrome Forecast
Issued by NWS Albany, NY

Home | Current Version | Previous Version | Text Only | Print | Product List | Glossary On
Versions: 1 2 3 4 5 6 7 8 9 10 11 12 13 14 15 16 17 18 19 20 21 22 23 24 25 26 27 28 29 30
000
FTUS41 KALY 260000 AAA
TAFGFL
TAF AMD
KGFL 260001Z 2600/2624 28009KT P6SM VCSH SCT025 OVC060
     FM260200 24005KT P6SM BKN035
     FM261100 25003KT P6SM SCT025 OVC035
     FM261400 28010G17KT P6SM BKN040=

USA.gov is the U.S. government's official web portal to all federal, state and local government web resources and services.